Time;durP1;ratioP1;P1;durP2;ratioP2;P2;SDS_P1;SDS_P2;PMS_P1;PMS_P2;Temp;Humidity;BMP_temperature;BMP_pressure;BME280_temperature;BME280_humidity;BME280_pressure;Samples;Min_cycle;Max_cycle;Signal;HPM_P1;HPM_P2
2021/03/04 00:01:59;;;;;;;55.80;14.63;;;;;;;2.60;100.00;101751.13;4971445;28;20038;-76
2021/03/04 00:04:24;;;;;;;47.53;13.00;;;;;;;2.61;100.00;101745.13;4971449;28;20038;-76
2021/03/04 00:06:49;;;;;;;57.10;12.90;;;;;;;2.65;100.00;101739.31;4970432;28;20034;-76
2021/03/04 00:09:15;;;;;;;57.30;13.57;;;;;;;2.69;100.00;101743.84;4970048;28;20023;-76
2021/03/04 00:11:40;;;;;;;52.40;13.07;;;;;;;2.68;100.00;101738.59;4970879;28;20077;-76
2021/03/04 00:14:06;;;;;;;51.23;14.00;;;;;;;2.69;100.00;101732.63;4974079;28;20092;-77
2021/03/04 00:16:31;;;;;;;49.47;12.37;;;;;;;2.61;100.00;101725.38;4969643;28;20357;-77
2021/03/04 00:18:57;;;;;;;40.77;11.97;;;;;;;2.62;100.00;101727.13;4971689;28;20038;-77
2021/03/04 00:21:22;;;;;;;49.77;13.40;;;;;;;2.60;100.00;101730.47;4971303;28;20037;-77
2021/03/04 00:23:47;;;;;;;48.97;11.93;;;;;;;2.60;100.00;101722.72;4971948;28;20038;-76
2021/03/04 00:26:13;;;;;;;48.80;11.43;;;;;;;2.58;100.00;101719.16;4970605;28;20141;-76
2021/03/04 00:28:38;;;;;;;54.13;11.10;;;;;;;2.60;100.00;101720.13;4971115;28;20038;-77
2021/03/04 00:31:04;;;;;;;51.93;12.60;;;;;;;2.56;100.00;101720.78;4969197;28;20027;-77
2021/03/04 00:33:29;;;;;;;44.63;11.97;;;;;;;2.52;100.00;101726.59;4971354;28;20030;-77
2021/03/04 00:35:55;;;;;;;40.30;10.97;;;;;;;2.45;100.00;101721.94;4970572;28;20023;-77
2021/03/04 00:38:21;;;;;;;48.07;11.23;;;;;;;2.44;100.00;101721.06;4971412;28;20117;-77
2021/03/04 00:40:46;;;;;;;43.53;11.67;;;;;;;2.37;100.00;101712.91;4970381;28;20682;-77
2021/03/04 00:43:12;;;;;;;45.37;10.90;;;;;;;2.34;100.00;101719.69;4971024;28;20554;-77
2021/03/04 00:45:37;;;;;;;48.77;11.30;;;;;;;2.35;100.00;101718.88;4969202;28;20038;-77
2021/03/04 00:48:04;;;;;;;38.80;10.47;;;;;;;2.34;100.00;101716.25;4970297;28;20297;-77
2021/03/04 00:50:29;;;;;;;38.37;9.90;;;;;;;2.34;100.00;101714.53;4970497;28;20419;-76
2021/03/04 00:52:55;;;;;;;34.43;10.30;;;;;;;2.34;100.00;101714.53;4971122;28;20492;-76
2021/03/04 00:55:20;;;;;;;39.97;9.73;;;;;;;2.33;100.00;101717.94;4971014;28;20042;-76
2021/03/04 00:57:46;;;;;;;38.47;9.57;;;;;;;2.30;100.00;101707.47;4978700;28;20030;-76
2021/03/04 01:00:12;;;;;;;44.23;10.50;;;;;;;2.30;100.00;101720.38;4970785;28;20030;-76
2021/03/04 01:02:38;;;;;;;45.53;10.60;;;;;;;2.33;100.00;101717.03;4971065;28;20023;-76
2021/03/04 01:05:04;;;;;;;44.90;10.50;;;;;;;2.37;100.00;101710.34;4972969;28;20333;-76
2021/03/04 01:07:30;;;;;;;32.67;9.53;;;;;;;2.33;100.00;101707.59;4973352;28;20034;-76
2021/03/04 01:09:56;;;;;;;41.43;11.03;;;;;;;2.37;100.00;101702.59;4974280;28;20278;-76
2021/03/04 01:12:21;;;;;;;43.30;10.83;;;;;;;2.37;100.00;101700.91;4974310;28;20030;-76
2021/03/04 01:14:47;;;;;;;43.33;10.60;;;;;;;2.38;100.00;101694.03;4974585;28;20019;-77
2021/03/04 01:17:13;;;;;;;43.77;9.63;;;;;;;2.40;100.00;101690.72;4973522;28;20436;-77
2021/03/04 01:19:39;;;;;;;53.63;12.10;;;;;;;2.40;100.00;101689.84;4974300;28;20026;-76
2021/03/04 01:22:04;;;;;;;45.27;9.90;;;;;;;2.37;100.00;101687.09;4974649;28;20278;-76
2021/03/04 01:24:30;;;;;;;52.73;11.83;;;;;;;2.30;100.00;101681.66;4974931;28;20034;-76
2021/03/04 01:26:55;;;;;;;38.00;9.07;;;;;;;2.28;100.00;101688.41;4974945;28;20514;-76
2021/03/04 01:29:21;;;;;;;44.83;10.17;;;;;;;2.26;100.00;101694.31;4974054;28;20027;-76
2021/03/04 01:31:46;;;;;;;40.60;9.27;;;;;;;2.28;100.00;101693.56;4974241;28;20027;-76
2021/03/04 01:34:12;;;;;;;37.73;9.90;;;;;;;2.23;100.00;101689.88;4973186;28;20089;-77
2021/03/04 01:36:37;;;;;;;41.17;9.00;;;;;;;2.25;100.00;101683.09;4974340;28;20081;-77
2021/03/04 01:39:05;;;;;;;51.67;8.93;;;;;;;2.26;100.00;101684.88;4974465;28;20027;-77
2021/03/04 01:41:30;;;;;;;39.20;9.23;;;;;;;2.25;100.00;101669.31;4973623;28;20423;-77
2021/03/04 01:43:56;;;;;;;28.33;8.47;;;;;;;2.21;100.00;101665.69;4973829;28;20282;-77
2021/03/04 01:46:21;;;;;;;34.53;8.93;;;;;;;2.24;100.00;101681.31;4974051;28;20034;-77
2021/03/04 01:48:47;;;;;;;39.93;10.37;;;;;;;2.29;100.00;101674.69;4970711;28;20476;-77
2021/03/04 01:51:12;;;;;;;48.77;9.63;;;;;;;2.25;100.00;101677.06;4973040;28;20506;-77
2021/03/04 01:53:38;;;;;;;45.73;9.40;;;;;;;2.18;100.00;101668.13;4974958;28;20422;-77
2021/03/04 01:56:05;;;;;;;29.03;7.73;;;;;;;2.17;100.00;101674.06;4972682;28;20539;-76
2021/03/04 01:58:30;;;;;;;32.87;7.83;;;;;;;2.12;100.00;101662.66;4973966;28;20189;-76
2021/03/04 02:00:56;;;;;;;39.60;9.00;;;;;;;2.13;100.00;101651.50;4972389;28;20278;-76
2021/03/04 02:03:24;;;;;;;34.33;9.17;;;;;;;2.14;100.00;101648.13;4971573;28;20031;-76
2021/03/04 02:05:49;;;;;;;37.47;9.70;;;;;;;2.11;100.00;101650.56;4970574;28;20340;-76
2021/03/04 02:08:27;;;;;;;42.87;9.83;;;;;;;2.14;100.00;101648.13;4973554;28;20278;-76
2021/03/04 02:10:57;;;;;;;44.30;10.33;;;;;;;2.16;100.00;101638.75;4970283;28;20106;-76
2021/03/04 02:13:45;;;;;;;36.17;8.77;;;;;;;2.18;100.00;101644.00;4966925;28;20377;-76
2021/03/04 02:16:16;;;;;;;35.90;7.93;;;;;;;2.12;100.00;101643.69;4972054;28;20631;-76
2021/03/04 02:18:45;;;;;;;38.17;8.17;;;;;;;2.13;100.00;101630.88;4972726;28;20285;-76
2021/03/04 02:21:48;;;;;;;35.70;8.93;;;;;;;2.16;100.00;101620.69;4973087;28;20700;-76
2021/03/04 02:24:51;;;;;;;35.08;8.88;;;;;;;2.11;100.00;101617.00;4973719;28;20276;-76
2021/03/04 02:27:21;;;;;;;33.63;7.88;;;;;;;2.06;100.00;101633.97;4970353;28;20486;-76
2021/03/04 02:29:51;;;;;;;34.63;8.40;;;;;;;2.03;100.00;101639.84;4971925;28;20483;-76
2021/03/04 02:32:23;;;;;;;33.30;8.07;;;;;;;2.07;100.00;101634.84;4971576;28;20278;-76
2021/03/04 02:34:54;;;;;;;29.60;8.32;;;;;;;2.03;100.00;101633.78;4973929;28;20611;-76
2021/03/04 02:37:23;;;;;;;39.47;9.37;;;;;;;2.06;100.00;101618.50;4972505;28;20034;-76
2021/03/04 02:39:52;;;;;;;33.70;7.43;;;;;;;2.02;100.00;101609.69;4973001;28;20286;-76
2021/03/04 02:42:20;;;;;;;35.57;8.33;;;;;;;2.07;100.00;101615.09;4972689;28;20278;-76
2021/03/04 02:44:48;;;;;;;31.10;7.77;;;;;;;2.08;100.00;101614.28;4971499;28;20301;-76
2021/03/04 02:47:16;;;;;;;38.37;8.70;;;;;;;2.09;100.00;101604.84;4971934;28;20636;-77
2021/03/04 02:49:43;;;;;;;40.13;9.00;;;;;;;2.14;100.00;101622.31;4971450;28;20313;-77
2021/03/04 02:52:09;;;;;;;35.40;9.30;;;;;;;2.12;100.00;101608.47;4972203;28;20282;-76
2021/03/04 02:54:35;;;;;;;39.47;9.23;;;;;;;2.09;100.00;101603.16;4972184;28;20277;-76
2021/03/04 02:57:02;;;;;;;35.93;8.73;;;;;;;2.16;100.00;101609.50;4972029;28;20073;-76
2021/03/04 02:59:31;;;;;;;43.97;9.30;;;;;;;2.12;100.00;101595.56;4972462;28;20089;-76
2021/03/04 03:01:57;;;;;;;36.10;8.53;;;;;;;2.09;100.00;101598.00;4971239;28;20360;-76
2021/03/04 03:04:25;;;;;;;37.87;8.00;;;;;;;2.07;100.00;101599.63;4970899;28;20317;-77
2021/03/04 03:06:52;;;;;;;42.23;9.33;;;;;;;2.09;100.00;101597.13;4972690;28;20733;-76
2021/03/04 03:09:18;;;;;;;38.20;7.63;;;;;;;2.12;100.00;101592.97;4971306;28;20266;-76
2021/03/04 03:11:43;;;;;;;33.33;8.03;;;;;;;2.08;100.00;101585.91;4971752;28;20389;-76
2021/03/04 03:14:09;;;;;;;31.93;8.10;;;;;;;2.07;100.00;101572.94;4972695;28;20027;-76
2021/03/04 03:16:35;;;;;;;32.97;7.80;;;;;;;2.07;100.00;101558.34;4970429;28;20057;-76
2021/03/04 03:19:00;;;;;;;32.50;7.00;;;;;;;2.09;100.00;101559.31;4971659;28;20318;-76
2021/03/04 03:21:26;;;;;;;25.77;6.20;;;;;;;2.02;100.00;101559.81;4979397;28;20113;-76
2021/03/04 03:23:51;;;;;;;27.63;6.57;;;;;;;1.99;100.00;101564.81;4972006;28;20472;-76
2021/03/04 03:26:17;;;;;;;25.00;5.70;;;;;;;2.01;100.00;101568.34;4971238;28;20030;-77
2021/03/04 03:28:42;;;;;;;25.90;6.83;;;;;;;2.03;100.00;101577.94;4972583;28;20022;-76
2021/03/04 03:31:09;;;;;;;24.87;6.67;;;;;;;2.01;100.00;101573.50;4971289;28;20033;-76
2021/03/04 03:33:35;;;;;;;26.53;6.20;;;;;;;2.00;100.00;101564.88;4972317;28;20416;-75
2021/03/04 03:36:01;;;;;;;26.27;6.97;;;;;;;2.02;100.00;101564.97;4970123;28;20300;-75
2021/03/04 03:38:27;;;;;;;34.97;8.03;;;;;;;2.01;100.00;101564.06;4971403;28;20077;-75
2021/03/04 03:40:55;;;;;;;24.40;6.60;;;;;;;2.00;100.00;101552.00;4972431;28;20305;-75
2021/03/04 03:43:23;;;;;;;18.47;6.20;;;;;;;1.98;100.00;101552.72;4972135;28;20293;-75
2021/03/04 03:45:50;;;;;;;27.60;7.13;;;;;;;2.00;100.00;101553.69;4970834;28;20284;-75
2021/03/04 03:48:18;;;;;;;28.60;6.30;;;;;;;2.00;100.00;101548.53;4971258;28;20340;-75
2021/03/04 03:50:48;;;;;;;31.83;6.80;;;;;;;2.05;100.00;101554.78;4971714;28;20332;-75
2021/03/04 03:53:14;;;;;;;23.60;5.87;;;;;;;2.05;100.00;101549.63;4967800;28;20282;-75
2021/03/04 03:55:44;;;;;;;32.33;7.30;;;;;;;2.01;100.00;101534.81;4971360;28;20754;-75
2021/03/04 03:58:11;;;;;;;34.57;7.33;;;;;;;2.07;100.00;101542.88;4963027;28;20288;-76
2021/03/04 04:00:37;;;;;;;30.97;7.00;;;;;;;2.06;100.00;101538.53;4970617;28;20293;-76
2021/03/04 04:03:04;;;;;;;41.30;7.37;;;;;;;2.08;100.00;101541.19;4971748;28;20270;-76
2021/03/04 04:05:31;;;;;;;47.37;8.90;;;;;;;2.10;100.00;101536.97;4970570;28;20039;-76
2021/03/04 04:07:58;;;;;;;34.77;7.37;;;;;;;2.13;100.00;101538.00;4972050;28;20286;-76
2021/03/04 04:10:31;;;;;;;40.57;8.50;;;;;;;2.16;100.00;101538.13;4970481;28;20274;-79
2021/03/04 04:12:58;;;;;;;42.17;9.10;;;;;;;2.20;100.00;101534.91;4971476;28;20274;-77
2021/03/04 04:15:24;;;;;;;45.20;8.47;;;;;;;2.21;100.00;101531.53;4969535;28;20282;-76
2021/03/04 04:17:51;;;;;;;35.67;7.30;;;;;;;2.23;100.00;101529.91;4972717;28;20324;-77
2021/03/04 04:20:19;;;;;;;40.30;9.03;;;;;;;2.17;100.00;101519.28;4969105;28;20306;-77
2021/03/04 04:22:45;;;;;;;40.90;8.10;;;;;;;2.21;100.00;101520.31;4972234;28;20278;-77
2021/03/04 04:25:12;;;;;;;38.47;10.17;;;;;;;2.20;100.00;101514.28;4971997;28;20332;-77
2021/03/04 04:27:37;;;;;;;41.83;8.47;;;;;;;2.24;100.00;101515.31;4970723;28;20282;-77
2021/03/04 04:30:05;;;;;;;47.27;8.37;;;;;;;2.22;100.00;101517.81;4969558;28;20289;-77
2021/03/04 04:32:31;;;;;;;41.63;8.60;;;;;;;2.25;100.00;101504.16;4969726;28;20035;-76
2021/03/04 04:34:56;;;;;;;44.77;9.03;;;;;;;2.24;100.00;101505.88;4972153;28;20285;-77
2021/03/04 04:37:21;;;;;;;38.67;8.43;;;;;;;2.26;100.00;101499.06;4971413;28;20041;-77
2021/03/04 04:39:47;;;;;;;44.17;8.97;;;;;;;2.28;100.00;101507.78;4973355;28;20030;-76
2021/03/04 04:42:12;;;;;;;47.07;8.37;;;;;;;2.26;100.00;101504.22;4974411;28;20045;-76
2021/03/04 04:44:38;;;;;;;41.40;8.17;;;;;;;2.28;100.00;101506.88;4975321;28;20089;-76
2021/03/04 04:47:03;;;;;;;43.80;10.13;;;;;;;2.24;100.00;101500.69;4971986;28;20093;-76
2021/03/04 04:49:29;;;;;;;39.97;9.00;;;;;;;2.18;100.00;101503.00;4972873;28;20023;-76
2021/03/04 04:51:54;;;;;;;39.03;8.37;;;;;;;2.21;100.00;101494.53;4974574;28;20050;-77
2021/03/04 04:54:19;;;;;;;39.13;7.67;;;;;;;2.19;100.00;101507.34;4975391;28;20423;-77
2021/03/04 04:56:45;;;;;;;42.20;9.03;;;;;;;2.18;100.00;101492.69;4974718;28;20022;-75
2021/03/04 04:59:11;;;;;;;42.20;8.27;;;;;;;2.19;100.00;101501.31;4974906;28;20039;-75
2021/03/04 05:01:36;;;;;;;42.80;8.47;;;;;;;2.21;100.00;101505.72;4973969;28;20030;-75
2021/03/04 05:04:01;;;;;;;34.70;7.50;;;;;;;2.21;100.00;101499.69;4974727;28;20400;-75
2021/03/04 05:06:27;;;;;;;33.10;8.47;;;;;;;2.21;100.00;101490.25;4973627;28;20030;-75
2021/03/04 05:08:52;;;;;;;41.27;8.77;;;;;;;2.23;100.00;101498.06;4973652;28;20034;-75
2021/03/04 05:11:18;;;;;;;40.73;9.53;;;;;;;2.22;100.00;101496.28;4973633;28;20015;-75
2021/03/04 05:13:44;;;;;;;46.77;8.73;;;;;;;2.23;100.00;101492.91;4974450;28;20049;-75
2021/03/04 05:16:10;;;;;;;39.40;8.90;;;;;;;2.25;100.00;101481.81;4974828;28;20019;-75
2021/03/04 05:18:36;;;;;;;44.90;9.20;;;;;;;2.23;100.00;101477.41;4974809;28;20270;-75
2021/03/04 05:21:02;;;;;;;51.90;7.77;;;;;;;2.21;100.00;101474.75;4974789;28;20304;-75
2021/03/04 05:23:27;;;;;;;35.50;7.30;;;;;;;2.17;100.00;101472.81;4975023;28;20106;-75
2021/03/04 05:25:53;;;;;;;32.53;7.73;;;;;;;2.14;100.00;101470.09;4973906;28;20023;-76
2021/03/04 05:28:18;;;;;;;31.27;8.20;;;;;;;2.17;100.00;101467.66;4972677;28;20026;-76
2021/03/04 05:30:44;;;;;;;42.20;8.10;;;;;;;2.21;100.00;101464.44;4973763;28;20033;-76
2021/03/04 05:33:09;;;;;;;39.27;8.63;;;;;;;2.21;100.00;101469.59;4974293;28;20382;-76
2021/03/04 05:35:34;;;;;;;25.97;6.43;;;;;;;2.16;100.00;101460.75;4973420;28;20038;-76
2021/03/04 05:38:00;;;;;;;32.00;7.80;;;;;;;2.19;100.00;101466.06;4974607;28;20372;-76
2021/03/04 05:40:26;;;;;;;29.97;8.70;;;;;;;2.19;100.00;101457.44;4973624;28;20026;-76
2021/03/04 05:42:52;;;;;;;32.77;6.70;;;;;;;2.17;100.00;101451.31;4977704;28;20026;-76
2021/03/04 05:45:20;;;;;;;33.63;7.57;;;;;;;2.17;100.00;101453.88;4973593;28;20535;-76
2021/03/04 05:47:47;;;;;;;35.73;7.87;;;;;;;2.19;100.00;101455.75;4974712;28;20420;-76
2021/03/04 05:50:16;;;;;;;27.87;6.87;;;;;;;2.24;100.00;101448.22;4972644;28;20282;-76
2021/03/04 05:52:48;;;;;;;25.43;6.50;;;;;;;2.24;100.00;101449.09;4972966;28;20289;-76
2021/03/04 05:55:15;;;;;;;;;;;;;;;2.23;100.00;101447.34;4974671;28;20282;-76
2021/03/04 05:57:41;;;;;;;33.10;7.50;;;;;;;2.23;100.00;101457.66;4973775;28;20009;-76
2021/03/04 06:00:07;;;;;;;28.17;7.27;;;;;;;2.28;100.00;101450.13;4973330;28;20281;-76
2021/03/04 06:02:35;;;;;;;36.23;7.97;;;;;;;2.25;100.00;101443.13;4973085;28;20027;-76
2021/03/04 06:05:01;;;;;;;32.93;7.50;;;;;;;2.25;100.00;101455.13;4973310;28;20373;-76
2021/03/04 06:07:27;;;;;;;33.13;7.87;;;;;;;2.25;100.00;101440.53;4974619;28;20709;-76
2021/03/04 06:09:53;;;;;;;34.93;8.10;;;;;;;2.28;100.00;101444.97;4974478;28;20027;-76
2021/03/04 06:12:18;;;;;;;32.20;8.30;;;;;;;2.27;100.00;101449.22;4973540;28;20677;-77
2021/03/04 06:14:44;;;;;;;33.03;7.63;;;;;;;2.26;100.00;101444.88;4973854;28;20073;-76
2021/03/04 06:17:15;;;;;;;31.77;6.57;;;;;;;2.22;100.00;101435.25;4971643;28;20030;-76
2021/03/04 06:19:41;;;;;;;31.70;7.17;;;;;;;2.25;100.00;101440.53;4973393;28;20046;-76
2021/03/04 06:22:06;;;;;;;23.97;5.77;;;;;;;2.23;100.00;101439.59;4972997;28;20266;-76
2021/03/04 06:24:32;;;;;;;30.27;6.37;;;;;;;2.28;100.00;101445.84;4974528;28;20268;-77
2021/03/04 06:26:58;;;;;;;23.03;5.83;;;;;;;2.28;100.00;101440.69;4972659;28;20031;-76
2021/03/04 06:29:26;;;;;;;20.47;5.10;;;;;;;2.26;100.00;101442.31;4972557;28;20109;-76
2021/03/04 06:32:22;;;;;;;31.17;7.20;;;;;;;2.32;100.00;101442.59;4986026;28;20133;-76
2021/03/04 06:34:59;;;;;;;20.83;6.17;;;;;;;2.28;100.00;101430.34;4970591;28;20321;-76
2021/03/04 06:37:28;;;;;;;24.13;5.67;;;;;;;2.29;100.00;101434.69;4973164;28;20277;-76
2021/03/04 06:39:53;;;;;;;22.53;6.37;;;;;;;2.32;100.00;101437.44;4974263;28;20270;-76
2021/03/04 06:42:23;;;;;;;21.30;4.87;;;;;;;2.29;100.00;101442.44;4972849;28;20883;-76
2021/03/04 06:44:54;;;;;;;23.93;5.57;;;;;;;2.27;100.00;101454.41;4973009;28;20085;-76
2021/03/04 06:47:24;;;;;;;16.17;4.90;;;;;;;2.23;100.00;101457.66;4972730;28;20711;-76
2021/03/04 06:49:50;;;;;;;19.43;5.93;;;;;;;2.18;100.00;101459.16;4973498;28;20271;-76
2021/03/04 06:52:42;;;;;;;19.50;5.53;;;;;;;2.25;100.00;101461.19;4971595;28;20290;-76
2021/03/04 06:55:12;;;;;;;22.60;4.77;;;;;;;2.19;100.00;101457.44;4964985;28;20313;-76
2021/03/04 06:57:38;;;;;;;16.40;4.47;;;;;;;2.24;100.00;101462.00;4973411;28;20288;-76
2021/03/04 07:00:06;;;;;;;20.00;4.80;;;;;;;2.21;100.00;101461.88;4972471;28;20278;-76
2021/03/04 07:02:32;;;;;;;14.07;4.60;;;;;;;2.25;100.00;101466.34;4971072;28;20571;-76
2021/03/04 07:04:59;;;;;;;16.03;4.60;;;;;;;2.32;100.00;101467.53;4973254;28;20380;-76
2021/03/04 07:07:27;;;;;;;13.30;4.43;;;;;;;2.36;100.00;101466.84;4971821;28;20194;-76
2021/03/04 07:09:55;;;;;;;16.63;4.40;;;;;;;2.31;100.00;101466.66;4972346;28;20313;-76
2021/03/04 07:12:22;;;;;;;16.53;3.70;;;;;;;2.34;100.00;101463.31;4971192;28;20399;-76
2021/03/04 07:14:49;;;;;;;13.33;3.90;;;;;;;2.28;100.00;101463.91;4972589;28;20282;-77
2021/03/04 07:17:20;;;;;;;17.57;4.53;;;;;;;2.33;100.00;101458.97;4972201;28;20642;-77
2021/03/04 07:19:53;;;;;;;15.37;4.30;;;;;;;2.29;100.00;101463.09;4970004;28;20305;-76
2021/03/04 07:22:20;;;;;;;19.23;4.90;;;;;;;2.33;100.00;101462.44;4970295;28;20756;-77
2021/03/04 07:24:46;;;;;;;15.73;4.30;;;;;;;2.36;100.00;101469.44;4971956;28;20289;-77
2021/03/04 07:27:16;;;;;;;22.13;6.43;;;;;;;2.39;100.00;101458.38;4972046;28;20824;-77
2021/03/04 07:29:43;;;;;;;20.33;6.10;;;;;;;2.47;100.00;101457.03;4970529;28;20312;-78
2021/03/04 07:32:10;;;;;;;18.43;4.83;;;;;;;2.38;100.00;101451.44;4971994;28;20626;-78
2021/03/04 07:34:37;;;;;;;17.97;5.10;;;;;;;2.43;100.00;101455.13;4969414;28;20309;-78
2021/03/04 07:37:03;;;;;;;16.27;4.47;;;;;;;2.48;100.00;101448.47;4970044;28;20769;-78
2021/03/04 07:39:34;;;;;;;17.63;5.00;;;;;;;2.53;100.00;101442.69;4970720;28;20352;-78
2021/03/04 07:42:00;;;;;;;14.83;5.20;;;;;;;2.55;100.00;101450.53;4971588;28;20427;-78
2021/03/04 07:44:31;;;;;;;19.43;4.87;;;;;;;2.68;100.00;101447.69;4972347;28;20475;-78
2021/03/04 07:46:59;;;;;;;17.07;4.57;;;;;;;2.65;100.00;101440.66;4972447;28;20035;-78
2021/03/04 07:49:45;;;;;;;14.73;4.47;;;;;;;2.62;100.00;101442.25;4972582;28;20278;-78
2021/03/04 07:52:13;;;;;;;13.77;4.13;;;;;;;2.56;100.00;101441.97;4972581;28;20389;-78
2021/03/04 07:54:39;;;;;;;20.80;5.13;;;;;;;2.56;100.00;101441.97;4972481;28;20302;-78
2021/03/04 07:57:07;;;;;;;15.03;3.97;;;;;;;2.43;100.00;101444.81;4972849;28;20262;-78
2021/03/04 07:59:33;;;;;;;20.57;4.83;;;;;;;2.41;100.00;101447.28;4972634;28;20282;-78
2021/03/04 08:02:00;;;;;;;16.50;4.10;;;;;;;2.29;100.00;101450.19;4972071;28;20305;-78
2021/03/04 08:04:28;;;;;;;18.37;4.90;;;;;;;2.33;100.00;101449.53;4972131;28;20286;-77
2021/03/04 08:06:55;;;;;;;21.33;5.43;;;;;;;2.35;100.00;101453.06;4971554;28;20300;-77
2021/03/04 08:09:31;;;;;;;15.40;4.93;;;;;;;2.34;100.00;101446.13;4972666;28;20305;-77
2021/03/04 08:12:14;;;;;;;16.23;5.30;;;;;;;2.37;100.00;101444.50;4972346;28;20789;-77
2021/03/04 08:14:52;;;;;;;20.57;5.47;;;;;;;2.38;100.00;101446.28;4970825;28;20278;-77
2021/03/04 08:17:17;;;;;;;18.33;5.17;;;;;;;2.42;100.00;101438.72;4976362;28;20612;-77
2021/03/04 08:19:45;;;;;;;19.07;4.50;;;;;;;2.47;100.00;101441.53;4976709;28;20281;-78
2021/03/04 08:22:11;;;;;;;20.47;5.47;;;;;;;2.55;100.00;101432.47;4975696;28;20045;-77
2021/03/04 08:24:39;;;;;;;24.70;5.40;;;;;;;2.71;100.00;101431.44;4975952;28;20904;-77
2021/03/04 08:27:05;;;;;;;21.30;5.70;;;;;;;2.77;100.00;101427.44;4976404;28;20035;-77
2021/03/04 08:29:32;;;;;;;21.47;5.97;;;;;;;2.68;100.00;101414.13;4975861;28;20281;-77
2021/03/04 08:32:00;;;;;;;23.00;5.87;;;;;;;2.65;100.00;101424.28;4975578;28;20282;-78
2021/03/04 08:34:36;;;;;;;31.07;7.20;;;;;;;2.61;100.00;101419.81;4976331;28;20276;-78
2021/03/04 08:37:02;;;;;;;26.10;7.70;;;;;;;2.66;100.00;101428.63;4975802;28;20274;-78
2021/03/04 08:39:35;;;;;;;22.57;6.17;;;;;;;2.68;100.00;101426.16;4976091;28;20317;-78
2021/03/04 08:42:08;;;;;;;16.73;5.38;;;;;;;2.75;100.00;101426.47;4974609;28;20282;-78
2021/03/04 08:44:34;;;;;;;16.70;4.63;;;;;;;2.89;100.00;101427.09;4975182;28;20093;-78
2021/03/04 08:47:00;;;;;;;21.97;6.17;;;;;;;2.92;100.00;101422.97;4976014;28;20356;-78
2021/03/04 08:49:26;;;;;;;14.73;4.17;;;;;;;3.03;100.00;101426.03;4975225;28;20282;-78
2021/03/04 08:51:54;;;;;;;11.67;3.23;;;;;;;3.01;100.00;101426.75;4976499;28;20038;-78
2021/03/04 08:54:29;;;;;;;12.97;3.73;;;;;;;2.98;100.00;101426.63;4973821;28;20450;-77
2021/03/04 08:57:03;;;;;;;13.93;4.33;;;;;;;2.97;100.00;101432.59;4975621;28;20270;-78
2021/03/04 08:59:30;;;;;;;8.93;3.33;;;;;;;2.94;100.00;101431.66;5004746;28;20274;-78
2021/03/04 09:01:57;;;;;;;8.20;3.03;;;;;;;3.06;100.00;101420.09;4975728;28;20644;-78
2021/03/04 09:04:25;;;;;;;8.63;3.37;;;;;;;3.14;100.00;101426.44;4975545;28;20365;-78
2021/03/04 09:06:51;;;;;;;8.03;2.93;;;;;;;3.23;100.00;101424.28;4975391;28;20286;-78
2021/03/04 09:09:28;;;;;;;10.57;3.73;;;;;;;3.21;100.00;101425.91;4975406;28;20731;-78
2021/03/04 09:11:54;;;;;;;7.97;2.83;;;;;;;3.13;100.00;101432.44;4972997;28;20027;-78
2021/03/04 09:14:31;;;;;;;8.03;2.90;;;;;;;3.18;100.00;101423.22;4976928;28;20328;-77
2021/03/04 09:16:58;;;;;;;7.97;2.90;;;;;;;3.25;100.00;101432.97;4975145;28;20254;-77
2021/03/04 09:19:41;;;;;;;8.67;3.53;;;;;;;3.28;100.00;101421.91;4975515;28;20281;-76
2021/03/04 09:22:10;;;;;;;8.77;3.17;;;;;;;3.39;100.00;101420.63;4987699;28;20278;-76
2021/03/04 09:24:38;;;;;;;10.87;3.40;;;;;;;3.52;100.00;101421.22;4975549;28;20266;-77
2021/03/04 09:27:12;;;;;;;11.40;2.93;;;;;;;3.64;100.00;101417.38;4974978;28;20286;-77
2021/03/04 09:29:40;;;;;;;8.67;2.97;;;;;;;3.76;100.00;101417.88;4975277;28;20273;-77
2021/03/04 09:32:05;;;;;;;7.47;2.63;;;;;;;3.76;100.00;101418.75;4974109;28;20358;-77
2021/03/04 09:34:38;;;;;;;6.73;2.83;;;;;;;3.68;100.00;101407.22;4975342;28;20353;-76
2021/03/04 09:37:24;;;;;;;9.00;2.70;;;;;;;3.85;100.00;101407.88;4973909;28;20114;-76
2021/03/04 09:39:51;;;;;;;7.53;2.60;;;;;;;3.77;100.00;101396.38;4975188;28;20823;-76
2021/03/04 09:42:38;;;;;;;7.70;2.90;;;;;;;3.76;100.00;101405.84;4973905;28;20278;-77
2021/03/04 09:45:07;;;;;;;7.97;2.80;;;;;;;3.80;100.00;101404.25;4974312;28;20365;-77
2021/03/04 09:47:34;;;;;;;9.27;3.27;;;;;;;3.83;100.00;101394.00;4973791;28;20298;-77
2021/03/04 09:50:03;;;;;;;8.53;2.73;;;;;;;3.82;100.00;101392.25;4973610;28;20278;-77
2021/03/04 09:52:32;;;;;;;7.10;2.70;;;;;;;3.91;100.00;101387.44;4973502;28;20328;-76
2021/03/04 09:55:15;;;;;;;8.23;2.93;;;;;;;3.86;100.00;101391.53;4971623;28;20612;-77
2021/03/04 09:57:42;;;;;;;9.35;2.63;;;;;;;3.72;100.00;101397.88;4973590;28;20281;-77
2021/03/04 10:00:16;;;;;;;7.57;2.60;;;;;;;3.62;100.00;101408.66;4974499;28;20109;-77
2021/03/04 10:02:45;;;;;;;7.73;2.77;;;;;;;3.61;100.00;101412.94;4975303;28;20282;-77
2021/03/04 10:05:21;;;;;;;6.80;2.63;;;;;;;3.53;100.00;101404.91;4973444;28;20314;-77
2021/03/04 10:07:48;;;;;;;8.30;2.90;;;;;;;3.69;100.00;101408.09;4972297;28;20290;-77
2021/03/04 10:10:19;;;;;;;7.17;2.50;;;;;;;3.80;100.00;101404.25;4973685;28;20321;-76
2021/03/04 10:12:56;;;;;;;7.73;2.90;;;;;;;3.81;100.00;101413.75;4973964;28;20282;-76
2021/03/04 10:15:33;;;;;;;7.33;2.93;;;;;;;3.65;100.00;101403.63;4973136;28;20743;-77
2021/03/04 10:18:06;;;;;;;10.10;3.40;;;;;;;3.67;100.00;101412.34;4970509;28;20318;-77
2021/03/04 10:20:31;;;;;;;6.97;3.00;;;;;;;3.65;100.00;101407.09;4973268;28;20301;-77
2021/03/04 10:22:57;;;;;;;10.20;3.00;;;;;;;3.69;100.00;101402.94;4972020;28;20266;-76
2021/03/04 10:25:23;;;;;;;10.27;3.10;;;;;;;3.72;100.00;101400.44;4973186;28;20058;-76
2021/03/04 10:27:49;;;;;;;6.20;2.83;;;;;;;3.91;100.00;101402.09;4973056;28;20547;-76
2021/03/04 10:30:15;;;;;;;9.03;2.80;;;;;;;4.11;100.00;101408.91;4973648;28;20053;-76
2021/03/04 10:32:42;;;;;;;6.83;3.00;;;;;;;4.04;100.00;101400.03;4980286;28;20286;-76
2021/03/04 10:35:10;;;;;;;8.23;3.27;;;;;;;4.35;100.00;101396.91;4973115;28;20282;-77
2021/03/04 10:37:36;;;;;;;9.27;2.60;;;;;;;4.18;100.00;101402.28;4972127;28;20274;-77
2021/03/04 10:40:04;;;;;;;7.40;2.87;;;;;;;4.04;100.00;101400.03;4973273;28;20503;-77
2021/03/04 10:42:29;;;;;;;8.87;2.73;;;;;;;4.01;100.00;101397.34;4971417;28;20274;-77
2021/03/04 10:44:59;;;;;;;7.87;3.00;;;;;;;3.92;100.00;101393.50;4973128;28;20301;-77
2021/03/04 10:47:25;;;;;;;7.97;2.87;;;;;;;3.84;100.00;101398.34;4972702;28;20041;-77
2021/03/04 10:49:51;;;;;;;7.13;3.03;;;;;;;3.94;100.00;101392.72;4972144;28;20308;-77
2021/03/04 10:52:16;;;;;;;7.90;2.73;;;;;;;4.11;100.00;101391.66;4972810;28;20353;-76
2021/03/04 10:54:42;;;;;;;7.13;3.00;;;;;;;4.16;100.00;101391.00;4973293;28;20065;-76
2021/03/04 10:57:07;;;;;;;7.90;3.13;;;;;;;4.27;100.00;101384.50;4971200;28;20037;-76
2021/03/04 10:59:33;;;;;;;5.90;2.50;;;;;;;4.21;100.00;101386.84;4971814;28;20105;-76
2021/03/04 11:01:58;;;;;;;7.33;2.90;;;;;;;4.23;100.00;101380.03;4972835;28;20022;-76
2021/03/04 11:04:24;;;;;;;7.73;2.80;;;;;;;4.30;100.00;101384.63;4973227;28;20093;-77
2021/03/04 11:06:49;;;;;;;8.03;2.60;;;;;;;4.31;100.00;101373.44;4972088;28;20116;-77
2021/03/04 11:09:14;;;;;;;7.57;2.60;;;;;;;4.29;100.00;101375.09;4971703;28;20569;-77
2021/03/04 11:11:40;;;;;;;6.10;2.70;;;;;;;4.26;100.00;101370.69;4976036;28;20061;-77
2021/03/04 11:14:05;;;;;;;9.60;2.67;;;;;;;4.49;100.00;101374.13;4973266;28;20467;-78
2021/03/04 11:16:31;;;;;;;6.77;2.63;;;;;;;4.83;100.00;101375.34;4973582;28;20379;-77
2021/03/04 11:18:56;;;;;;;8.07;3.43;;;;;;;4.69;100.00;101373.13;4972915;28;20390;-77
2021/03/04 11:21:22;;;;;;;9.43;2.97;;;;;;;4.79;100.00;101378.66;4973090;28;20034;-77